sensor_id;sensor_type;location;lat;lon;timestamp;temperature;humidity
70145;DHT22;57510;51.068;3.872;2022-08-01T00:00:06;21.40;88.60
70145;DHT22;57510;51.068;3.872;2022-08-01T00:02:32;21.40;88.50
70145;DHT22;57510;51.068;3.872;2022-08-01T00:04:58;21.30;88.70
70145;DHT22;57510;51.068;3.872;2022-08-01T00:07:25;21.30;88.90
70145;DHT22;57510;51.068;3.872;2022-08-01T00:09:51;21.30;89.30
70145;DHT22;57510;51.068;3.872;2022-08-01T00:12:16;21.20;89.40
70145;DHT22;57510;51.068;3.872;2022-08-01T00:14:42;21.20;89.70
70145;DHT22;57510;51.068;3.872;2022-08-01T00:17:07;21.20;89.60
70145;DHT22;57510;51.068;3.872;2022-08-01T00:19:33;21.20;89.60
70145;DHT22;57510;51.068;3.872;2022-08-01T00:22:00;21.20;89.80
70145;DHT22;57510;51.068;3.872;2022-08-01T00:24:25;21.20;89.80
70145;DHT22;57510;51.068;3.872;2022-08-01T00:26:51;21.20;89.90
70145;DHT22;57510;51.068;3.872;2022-08-01T00:29:17;21.20;89.90
70145;DHT22;57510;51.068;3.872;2022-08-01T00:31:45;21.20;89.80
70145;DHT22;57510;51.068;3.872;2022-08-01T00:34:10;21.20;89.90
70145;DHT22;57510;51.068;3.872;2022-08-01T00:36:36;21.20;90.00
70145;DHT22;57510;51.068;3.872;2022-08-01T00:39:02;21.10;90.10
70145;DHT22;57510;51.068;3.872;2022-08-01T00:44:01;21.20;90.10
70145;DHT22;57510;51.068;3.872;2022-08-01T00:46:28;21.20;90.10
70145;DHT22;57510;51.068;3.872;2022-08-01T00:48:54;21.30;90.10
70145;DHT22;57510;51.068;3.872;2022-08-01T00:51:22;21.30;90.20
70145;DHT22;57510;51.068;3.872;2022-08-01T00:53:48;21.20;90.30
70145;DHT22;57510;51.068;3.872;2022-08-01T00:56:14;21.20;90.30
70145;DHT22;57510;51.068;3.872;2022-08-01T00:58:40;21.20;90.40
70145;DHT22;57510;51.068;3.872;2022-08-01T01:01:06;21.20;90.40
70145;DHT22;57510;51.068;3.872;2022-08-01T01:03:32;21.20;90.40
70145;DHT22;57510;51.068;3.872;2022-08-01T01:08:24;21.10;90.60
70145;DHT22;57510;51.068;3.872;2022-08-01T01:11:01;21.10;90.60
70145;DHT22;57510;51.068;3.872;2022-08-01T01:13:36;21.20;90.60
70145;DHT22;57510;51.068;3.872;2022-08-01T01:16:05;21.10;90.70
70145;DHT22;57510;51.068;3.872;2022-08-01T01:18:43;21.10;90.90
70145;DHT22;57510;51.068;3.872;2022-08-01T01:29:03;21.00;91.10
70145;DHT22;57510;51.068;3.872;2022-08-01T01:31:33;21.00;91.30
70145;DHT22;57510;51.068;3.872;2022-08-01T01:34:00;21.00;91.30
70145;DHT22;57510;51.068;3.872;2022-08-01T01:36:26;21.00;91.40
70145;DHT22;57510;51.068;3.872;2022-08-01T01:38:52;21.00;91.40
70145;DHT22;57510;51.068;3.872;2022-08-01T01:41:18;21.00;91.60
70145;DHT22;57510;51.068;3.872;2022-08-01T01:43:47;21.00;91.70
70145;DHT22;57510;51.068;3.872;2022-08-01T01:46:15;21.00;91.70
70145;DHT22;57510;51.068;3.872;2022-08-01T01:48:43;21.00;91.80
70145;DHT22;57510;51.068;3.872;2022-08-01T01:51:08;20.90;91.90
70145;DHT22;57510;51.068;3.872;2022-08-01T01:53:35;20.90;92.00
70145;DHT22;57510;51.068;3.872;2022-08-01T01:56:02;20.80;92.40
70145;DHT22;57510;51.068;3.872;2022-08-01T01:58:28;20.80;92.50
70145;DHT22;57510;51.068;3.872;2022-08-01T02:00:57;20.70;92.60
70145;DHT22;57510;51.068;3.872;2022-08-01T02:03:26;20.60;92.80
70145;DHT22;57510;51.068;3.872;2022-08-01T02:05:53;20.50;92.80
70145;DHT22;57510;51.068;3.872;2022-08-01T02:08:19;20.40;92.80
70145;DHT22;57510;51.068;3.872;2022-08-01T02:10:45;20.40;92.70
70145;DHT22;57510;51.068;3.872;2022-08-01T02:13:31;20.30;92.70
70145;DHT22;57510;51.068;3.872;2022-08-01T02:16:00;20.20;92.80
70145;DHT22;57510;51.068;3.872;2022-08-01T02:18:26;20.20;92.80
70145;DHT22;57510;51.068;3.872;2022-08-01T02:20:52;20.30;92.70
70145;DHT22;57510;51.068;3.872;2022-08-01T02:23:20;20.30;92.70
70145;DHT22;57510;51.068;3.872;2022-08-01T02:25:50;20.30;92.70
70145;DHT22;57510;51.068;3.872;2022-08-01T02:30:42;20.40;92.60
70145;DHT22;57510;51.068;3.872;2022-08-01T02:35:35;20.50;92.40
70145;DHT22;57510;51.068;3.872;2022-08-01T02:38:03;20.60;92.40
70145;DHT22;57510;51.068;3.872;2022-08-01T02:40:29;20.60;92.20
70145;DHT22;57510;51.068;3.872;2022-08-01T02:42:58;20.60;92.20
70145;DHT22;57510;51.068;3.872;2022-08-01T02:45:25;20.70;92.20
70145;DHT22;57510;51.068;3.872;2022-08-01T02:47:52;20.70;92.10
70145;DHT22;57510;51.068;3.872;2022-08-01T02:50:19;20.70;92.10
70145;DHT22;57510;51.068;3.872;2022-08-01T02:52:47;20.80;92.00
70145;DHT22;57510;51.068;3.872;2022-08-01T02:55:13;20.80;92.00
70145;DHT22;57510;51.068;3.872;2022-08-01T02:57:40;20.90;92.00
70145;DHT22;57510;51.068;3.872;2022-08-01T03:00:07;20.90;91.90
70145;DHT22;57510;51.068;3.872;2022-08-01T03:02:33;21.00;91.90
70145;DHT22;57510;51.068;3.872;2022-08-01T03:04:59;21.00;91.80
70145;DHT22;57510;51.068;3.872;2022-08-01T03:07:26;21.00;91.70
70145;DHT22;57510;51.068;3.872;2022-08-01T03:09:51;21.00;91.60
70145;DHT22;57510;51.068;3.872;2022-08-01T03:12:18;21.00;91.60
70145;DHT22;57510;51.068;3.872;2022-08-01T03:14:45;21.00;91.60
70145;DHT22;57510;51.068;3.872;2022-08-01T03:17:12;21.00;91.60
70145;DHT22;57510;51.068;3.872;2022-08-01T03:19:38;21.00;91.60
70145;DHT22;57510;51.068;3.872;2022-08-01T03:22:08;21.00;91.50
70145;DHT22;57510;51.068;3.872;2022-08-01T03:24:35;21.00;91.50
70145;DHT22;57510;51.068;3.872;2022-08-01T03:27:02;21.10;91.50
70145;DHT22;57510;51.068;3.872;2022-08-01T03:29:31;21.10;91.50
70145;DHT22;57510;51.068;3.872;2022-08-01T03:31:58;21.00;91.50
70145;DHT22;57510;51.068;3.872;2022-08-01T03:34:25;21.10;91.50
70145;DHT22;57510;51.068;3.872;2022-08-01T03:36:56;21.00;91.40
70145;DHT22;57510;51.068;3.872;2022-08-01T03:39:25;21.00;91.30
70145;DHT22;57510;51.068;3.872;2022-08-01T03:41:54;20.90;91.30
70145;DHT22;57510;51.068;3.872;2022-08-01T03:44:22;21.00;91.40
70145;DHT22;57510;51.068;3.872;2022-08-01T03:46:59;21.00;91.40
70145;DHT22;57510;51.068;3.872;2022-08-01T03:49:29;21.00;91.40
70145;DHT22;57510;51.068;3.872;2022-08-01T03:51:55;21.00;91.30
70145;DHT22;57510;51.068;3.872;2022-08-01T03:54:21;21.00;91.20
70145;DHT22;57510;51.068;3.872;2022-08-01T03:56:48;21.00;91.20
70145;DHT22;57510;51.068;3.872;2022-08-01T03:59:16;21.00;91.20
70145;DHT22;57510;51.068;3.872;2022-08-01T04:01:42;21.00;91.10
70145;DHT22;57510;51.068;3.872;2022-08-01T04:04:08;21.00;91.00
70145;DHT22;57510;51.068;3.872;2022-08-01T04:06:38;20.90;90.90
70145;DHT22;57510;51.068;3.872;2022-08-01T04:09:04;20.90;91.10
70145;DHT22;57510;51.068;3.872;2022-08-01T04:11:32;20.80;91.00
70145;DHT22;57510;51.068;3.872;2022-08-01T04:13:58;20.80;91.10
70145;DHT22;57510;51.068;3.872;2022-08-01T04:16:26;20.80;91.10
70145;DHT22;57510;51.068;3.872;2022-08-01T04:18:52;20.80;91.10
70145;DHT22;57510;51.068;3.872;2022-08-01T04:21:18;20.80;91.10
70145;DHT22;57510;51.068;3.872;2022-08-01T04:23:53;20.70;91.20
70145;DHT22;57510;51.068;3.872;2022-08-01T04:26:19;20.60;91.20
70145;DHT22;57510;51.068;3.872;2022-08-01T04:28:47;20.60;91.30
70145;DHT22;57510;51.068;3.872;2022-08-01T04:31:15;20.50;91.30
70145;DHT22;57510;51.068;3.872;2022-08-01T04:33:42;20.50;91.30
70145;DHT22;57510;51.068;3.872;2022-08-01T04:39:00;20.40;91.40
70145;DHT22;57510;51.068;3.872;2022-08-01T04:41:47;20.40;91.50
70145;DHT22;57510;51.068;3.872;2022-08-01T04:44:16;20.30;91.60
70145;DHT22;57510;51.068;3.872;2022-08-01T04:46:42;20.40;91.50
70145;DHT22;57510;51.068;3.872;2022-08-01T04:49:09;20.30;91.50
70145;DHT22;57510;51.068;3.872;2022-08-01T04:51:37;20.40;91.50
70145;DHT22;57510;51.068;3.872;2022-08-01T04:54:14;20.50;91.50
70145;DHT22;57510;51.068;3.872;2022-08-01T04:56:40;20.60;91.40
70145;DHT22;57510;51.068;3.872;2022-08-01T04:59:06;20.60;91.30
70145;DHT22;57510;51.068;3.872;2022-08-01T05:01:51;20.60;91.30
70145;DHT22;57510;51.068;3.872;2022-08-01T05:04:16;20.70;91.30
70145;DHT22;57510;51.068;3.872;2022-08-01T05:06:43;20.70;91.20
70145;DHT22;57510;51.068;3.872;2022-08-01T05:09:09;20.70;91.20
70145;DHT22;57510;51.068;3.872;2022-08-01T05:11:34;20.80;91.20
70145;DHT22;57510;51.068;3.872;2022-08-01T05:14:00;20.80;91.10
70145;DHT22;57510;51.068;3.872;2022-08-01T05:16:26;20.90;91.00
70145;DHT22;57510;51.068;3.872;2022-08-01T05:18:52;21.00;90.80
70145;DHT22;57510;51.068;3.872;2022-08-01T05:21:20;21.10;90.70
70145;DHT22;57510;51.068;3.872;2022-08-01T05:23:46;21.10;90.60
70145;DHT22;57510;51.068;3.872;2022-08-01T05:26:12;21.20;90.60
70145;DHT22;57510;51.068;3.872;2022-08-01T05:28:39;21.20;90.60
70145;DHT22;57510;51.068;3.872;2022-08-01T05:31:04;21.20;90.50
70145;DHT22;57510;51.068;3.872;2022-08-01T05:33:30;21.20;90.40
70145;DHT22;57510;51.068;3.872;2022-08-01T05:35:59;21.30;90.40
70145;DHT22;57510;51.068;3.872;2022-08-01T05:38:25;21.40;90.20
70145;DHT22;57510;51.068;3.872;2022-08-01T05:40:51;21.50;90.20
70145;DHT22;57510;51.068;3.872;2022-08-01T05:43:17;21.50;90.10
70145;DHT22;57510;51.068;3.872;2022-08-01T05:45:42;21.60;89.80
70145;DHT22;57510;51.068;3.872;2022-08-01T05:48:17;21.60;89.60
70145;DHT22;57510;51.068;3.872;2022-08-01T05:50:47;21.70;89.50
70145;DHT22;57510;51.068;3.872;2022-08-01T05:53:13;21.70;89.00
70145;DHT22;57510;51.068;3.872;2022-08-01T05:55:38;21.80;89.00
70145;DHT22;57510;51.068;3.872;2022-08-01T05:58:04;21.90;88.80
70145;DHT22;57510;51.068;3.872;2022-08-01T06:00:30;22.00;88.60
70145;DHT22;57510;51.068;3.872;2022-08-01T06:02:58;22.00;88.40
70145;DHT22;57510;51.068;3.872;2022-08-01T06:05:24;22.20;87.90
70145;DHT22;57510;51.068;3.872;2022-08-01T06:08:03;22.10;87.60
70145;DHT22;57510;51.068;3.872;2022-08-01T06:10:28;22.10;87.70
70145;DHT22;57510;51.068;3.872;2022-08-01T06:12:54;22.00;87.60
70145;DHT22;57510;51.068;3.872;2022-08-01T06:15:20;21.90;87.70
70145;DHT22;57510;51.068;3.872;2022-08-01T06:17:46;21.90;87.50
70145;DHT22;57510;51.068;3.872;2022-08-01T06:20:15;22.00;87.50
70145;DHT22;57510;51.068;3.872;2022-08-01T06:22:57;22.00;87.30
70145;DHT22;57510;51.068;3.872;2022-08-01T06:25:22;21.90;86.80
70145;DHT22;57510;51.068;3.872;2022-08-01T06:27:53;22.00;86.80
70145;DHT22;57510;51.068;3.872;2022-08-01T06:30:19;22.10;86.70
70145;DHT22;57510;51.068;3.872;2022-08-01T06:32:45;22.10;86.50
70145;DHT22;57510;51.068;3.872;2022-08-01T06:35:12;22.20;86.20
70145;DHT22;57510;51.068;3.872;2022-08-01T06:37:38;22.10;86.00
70145;DHT22;57510;51.068;3.872;2022-08-01T06:40:09;22.10;85.80
70145;DHT22;57510;51.068;3.872;2022-08-01T06:42:35;22.20;85.70
70145;DHT22;57510;51.068;3.872;2022-08-01T06:45:05;22.30;85.50
70145;DHT22;57510;51.068;3.872;2022-08-01T06:47:30;22.40;85.00
70145;DHT22;57510;51.068;3.872;2022-08-01T06:49:56;22.50;84.40
70145;DHT22;57510;51.068;3.872;2022-08-01T06:52:24;22.50;84.40
70145;DHT22;57510;51.068;3.872;2022-08-01T06:54:49;22.60;84.50
70145;DHT22;57510;51.068;3.872;2022-08-01T06:57:15;22.60;83.70
70145;DHT22;57510;51.068;3.872;2022-08-01T06:59:41;22.80;83.80
70145;DHT22;57510;51.068;3.872;2022-08-01T07:02:06;22.90;83.30
70145;DHT22;57510;51.068;3.872;2022-08-01T07:04:33;22.90;83.20
70145;DHT22;57510;51.068;3.872;2022-08-01T07:06:58;23.00;83.10
70145;DHT22;57510;51.068;3.872;2022-08-01T07:09:24;23.20;82.50
70145;DHT22;57510;51.068;3.872;2022-08-01T07:11:49;23.30;81.70
70145;DHT22;57510;51.068;3.872;2022-08-01T07:14:17;23.30;80.50
70145;DHT22;57510;51.068;3.872;2022-08-01T07:16:43;23.40;80.00
70145;DHT22;57510;51.068;3.872;2022-08-01T07:19:08;23.30;77.10
70145;DHT22;57510;51.068;3.872;2022-08-01T07:21:34;23.10;77.50
70145;DHT22;57510;51.068;3.872;2022-08-01T07:24:00;23.20;77.20
70145;DHT22;57510;51.068;3.872;2022-08-01T07:26:26;23.20;77.30
70145;DHT22;57510;51.068;3.872;2022-08-01T07:28:52;23.30;77.70
70145;DHT22;57510;51.068;3.872;2022-08-01T07:31:18;23.30;76.60
70145;DHT22;57510;51.068;3.872;2022-08-01T07:33:44;23.40;76.60
70145;DHT22;57510;51.068;3.872;2022-08-01T07:36:09;23.50;76.10
70145;DHT22;57510;51.068;3.872;2022-08-01T07:38:36;23.70;75.40
70145;DHT22;57510;51.068;3.872;2022-08-01T07:41:01;23.90;74.00
70145;DHT22;57510;51.068;3.872;2022-08-01T07:43:27;24.20;74.40
70145;DHT22;57510;51.068;3.872;2022-08-01T07:45:53;24.40;73.20
70145;DHT22;57510;51.068;3.872;2022-08-01T07:48:18;24.60;73.20
70145;DHT22;57510;51.068;3.872;2022-08-01T07:50:45;24.70;72.50
70145;DHT22;57510;51.068;3.872;2022-08-01T07:53:11;24.70;72.00
70145;DHT22;57510;51.068;3.872;2022-08-01T07:55:37;24.90;71.50
70145;DHT22;57510;51.068;3.872;2022-08-01T07:58:03;25.00;71.40
70145;DHT22;57510;51.068;3.872;2022-08-01T08:00:29;25.20;70.60
70145;DHT22;57510;51.068;3.872;2022-08-01T08:02:54;25.10;70.20
70145;DHT22;57510;51.068;3.872;2022-08-01T08:05:20;25.00;70.20
70145;DHT22;57510;51.068;3.872;2022-08-01T08:07:46;25.10;70.20
70145;DHT22;57510;51.068;3.872;2022-08-01T08:10:13;25.20;70.40
70145;DHT22;57510;51.068;3.872;2022-08-01T08:12:39;25.40;69.80
70145;DHT22;57510;51.068;3.872;2022-08-01T08:15:05;25.50;69.20
70145;DHT22;57510;51.068;3.872;2022-08-01T08:17:31;25.70;69.00
70145;DHT22;57510;51.068;3.872;2022-08-01T08:19:57;25.80;68.70
70145;DHT22;57510;51.068;3.872;2022-08-01T08:22:25;25.70;68.10
70145;DHT22;57510;51.068;3.872;2022-08-01T08:24:50;25.60;68.40
70145;DHT22;57510;51.068;3.872;2022-08-01T08:27:16;25.60;68.70
70145;DHT22;57510;51.068;3.872;2022-08-01T08:29:42;25.50;68.20
70145;DHT22;57510;51.068;3.872;2022-08-01T08:32:07;25.40;68.50
70145;DHT22;57510;51.068;3.872;2022-08-01T08:34:33;25.40;68.50
70145;DHT22;57510;51.068;3.872;2022-08-01T08:36:59;25.50;68.40
70145;DHT22;57510;51.068;3.872;2022-08-01T08:39:25;25.40;68.80
70145;DHT22;57510;51.068;3.872;2022-08-01T08:41:51;25.60;68.30
70145;DHT22;57510;51.068;3.872;2022-08-01T08:44:18;25.80;67.80
70145;DHT22;57510;51.068;3.872;2022-08-01T08:46:46;25.80;68.50
70145;DHT22;57510;51.068;3.872;2022-08-01T08:49:14;25.80;68.10
70145;DHT22;57510;51.068;3.872;2022-08-01T08:51:41;25.80;67.90
70145;DHT22;57510;51.068;3.872;2022-08-01T08:54:07;25.70;67.60
70145;DHT22;57510;51.068;3.872;2022-08-01T08:56:33;25.50;67.80
70145;DHT22;57510;51.068;3.872;2022-08-01T08:58:59;25.70;68.30
70145;DHT22;57510;51.068;3.872;2022-08-01T09:01:26;26.00;68.00
70145;DHT22;57510;51.068;3.872;2022-08-01T09:03:51;26.20;67.90
70145;DHT22;57510;51.068;3.872;2022-08-01T09:06:18;26.30;67.40
70145;DHT22;57510;51.068;3.872;2022-08-01T09:08:44;26.30;66.30
70145;DHT22;57510;51.068;3.872;2022-08-01T09:11:11;26.50;66.20
70145;DHT22;57510;51.068;3.872;2022-08-01T09:13:36;26.30;66.80
70145;DHT22;57510;51.068;3.872;2022-08-01T09:16:02;26.20;66.70
70145;DHT22;57510;51.068;3.872;2022-08-01T09:23:34;26.60;65.50
70145;DHT22;57510;51.068;3.872;2022-08-01T09:26:00;26.90;65.20
70145;DHT22;57510;51.068;3.872;2022-08-01T09:28:27;27.20;65.10
70145;DHT22;57510;51.068;3.872;2022-08-01T09:30:53;27.60;64.30
70145;DHT22;57510;51.068;3.872;2022-08-01T09:33:20;27.80;63.50
70145;DHT22;57510;51.068;3.872;2022-08-01T09:35:46;27.90;62.90
70145;DHT22;57510;51.068;3.872;2022-08-01T09:38:22;28.00;62.50
70145;DHT22;57510;51.068;3.872;2022-08-01T09:40:52;27.70;62.40
70145;DHT22;57510;51.068;3.872;2022-08-01T09:43:19;27.70;62.40
70145;DHT22;57510;51.068;3.872;2022-08-01T09:45:45;27.70;61.70
70145;DHT22;57510;51.068;3.872;2022-08-01T09:48:11;27.80;61.20
70145;DHT22;57510;51.068;3.872;2022-08-01T09:50:44;28.10;60.90
70145;DHT22;57510;51.068;3.872;2022-08-01T09:53:10;28.10;60.90
70145;DHT22;57510;51.068;3.872;2022-08-01T09:55:43;28.40;60.90
70145;DHT22;57510;51.068;3.872;2022-08-01T09:58:09;28.50;60.20
70145;DHT22;57510;51.068;3.872;2022-08-01T10:00:37;28.30;60.30
70145;DHT22;57510;51.068;3.872;2022-08-01T10:03:22;28.20;60.10
70145;DHT22;57510;51.068;3.872;2022-08-01T10:05:49;27.90;60.50
70145;DHT22;57510;51.068;3.872;2022-08-01T10:08:15;28.00;60.90
70145;DHT22;57510;51.068;3.872;2022-08-01T10:10:41;28.30;60.50
70145;DHT22;57510;51.068;3.872;2022-08-01T10:13:07;28.40;60.00
70145;DHT22;57510;51.068;3.872;2022-08-01T10:15:33;28.40;59.60
70145;DHT22;57510;51.068;3.872;2022-08-01T10:18:01;28.20;60.00
70145;DHT22;57510;51.068;3.872;2022-08-01T10:20:28;27.80;60.30
70145;DHT22;57510;51.068;3.872;2022-08-01T10:22:55;27.90;60.30
70145;DHT22;57510;51.068;3.872;2022-08-01T10:25:21;28.10;59.60
70145;DHT22;57510;51.068;3.872;2022-08-01T10:27:48;28.20;60.20
70145;DHT22;57510;51.068;3.872;2022-08-01T10:30:14;28.40;59.30
70145;DHT22;57510;51.068;3.872;2022-08-01T10:32:40;28.70;58.70
70145;DHT22;57510;51.068;3.872;2022-08-01T10:35:07;28.80;57.90
70145;DHT22;57510;51.068;3.872;2022-08-01T10:37:34;28.60;58.60
70145;DHT22;57510;51.068;3.872;2022-08-01T10:40:00;28.20;60.10
70145;DHT22;57510;51.068;3.872;2022-08-01T10:42:26;28.10;60.00
70145;DHT22;57510;51.068;3.872;2022-08-01T10:44:53;28.30;60.40
70145;DHT22;57510;51.068;3.872;2022-08-01T10:47:30;28.40;59.90
70145;DHT22;57510;51.068;3.872;2022-08-01T10:52:28;28.80;59.10
70145;DHT22;57510;51.068;3.872;2022-08-01T10:55:04;29.00;58.40
70145;DHT22;57510;51.068;3.872;2022-08-01T10:57:45;29.10;58.50
70145;DHT22;57510;51.068;3.872;2022-08-01T11:00:18;28.80;57.90
70145;DHT22;57510;51.068;3.872;2022-08-01T11:02:56;28.40;58.40
70145;DHT22;57510;51.068;3.872;2022-08-01T11:05:22;28.20;58.50
70145;DHT22;57510;51.068;3.872;2022-08-01T11:07:51;28.10;59.60
70145;DHT22;57510;51.068;3.872;2022-08-01T11:12:59;28.20;58.70
70145;DHT22;57510;51.068;3.872;2022-08-01T11:15:27;28.50;57.80
70145;DHT22;57510;51.068;3.872;2022-08-01T11:17:54;28.70;58.20
70145;DHT22;57510;51.068;3.872;2022-08-01T11:30:36;28.70;56.80
70145;DHT22;57510;51.068;3.872;2022-08-01T11:33:01;28.70;56.70
70145;DHT22;57510;51.068;3.872;2022-08-01T11:35:27;28.40;57.10
70145;DHT22;57510;51.068;3.872;2022-08-01T11:37:53;28.60;56.60
70145;DHT22;57510;51.068;3.872;2022-08-01T11:42:48;28.60;56.50
70145;DHT22;57510;51.068;3.872;2022-08-01T11:45:14;28.50;56.20
70145;DHT22;57510;51.068;3.872;2022-08-01T11:47:47;28.80;56.20
70145;DHT22;57510;51.068;3.872;2022-08-01T11:50:29;28.90;55.50
70145;DHT22;57510;51.068;3.872;2022-08-01T11:52:59;29.20;54.40
70145;DHT22;57510;51.068;3.872;2022-08-01T11:55:24;29.30;53.70
70145;DHT22;57510;51.068;3.872;2022-08-01T11:57:58;29.20;53.70
70145;DHT22;57510;51.068;3.872;2022-08-01T12:00:24;29.20;53.80
70145;DHT22;57510;51.068;3.872;2022-08-01T12:03:03;29.20;53.90
70145;DHT22;57510;51.068;3.872;2022-08-01T12:05:29;29.40;53.80
70145;DHT22;57510;51.068;3.872;2022-08-01T12:07:58;29.20;53.40
70145;DHT22;57510;51.068;3.872;2022-08-01T12:10:26;29.70;53.50
70145;DHT22;57510;51.068;3.872;2022-08-01T12:12:53;30.10;52.70
70145;DHT22;57510;51.068;3.872;2022-08-01T12:15:20;30.30;53.70
70145;DHT22;57510;51.068;3.872;2022-08-01T12:17:46;30.20;52.20
70145;DHT22;57510;51.068;3.872;2022-08-01T12:20:14;30.00;50.70
70145;DHT22;57510;51.068;3.872;2022-08-01T12:22:40;29.80;51.90
70145;DHT22;57510;51.068;3.872;2022-08-01T12:27:32;30.40;51.00
70145;DHT22;57510;51.068;3.872;2022-08-01T12:29:58;30.60;50.80
70145;DHT22;57510;51.068;3.872;2022-08-01T12:32:25;30.40;50.10
70145;DHT22;57510;51.068;3.872;2022-08-01T12:34:52;30.20;51.20
70145;DHT22;57510;51.068;3.872;2022-08-01T12:37:18;29.90;51.50
70145;DHT22;57510;51.068;3.872;2022-08-01T12:39:44;30.10;51.30
70145;DHT22;57510;51.068;3.872;2022-08-01T12:42:09;30.40;52.10
70145;DHT22;57510;51.068;3.872;2022-08-01T12:44:36;30.00;50.90
70145;DHT22;57510;51.068;3.872;2022-08-01T12:47:02;29.70;50.30
70145;DHT22;57510;51.068;3.872;2022-08-01T12:49:28;29.50;50.40
70145;DHT22;57510;51.068;3.872;2022-08-01T12:51:53;29.30;50.80
70145;DHT22;57510;51.068;3.872;2022-08-01T12:54:20;29.70;51.00
70145;DHT22;57510;51.068;3.872;2022-08-01T12:56:45;29.90;49.80
70145;DHT22;57510;51.068;3.872;2022-08-01T13:01:46;29.20;50.70
70145;DHT22;57510;51.068;3.872;2022-08-01T13:04:12;28.90;50.70
70145;DHT22;57510;51.068;3.872;2022-08-01T13:06:38;29.00;50.20
70145;DHT22;57510;51.068;3.872;2022-08-01T13:09:07;29.00;49.70
70145;DHT22;57510;51.068;3.872;2022-08-01T13:11:34;29.00;49.70
70145;DHT22;57510;51.068;3.872;2022-08-01T13:13:59;29.00;49.60
70145;DHT22;57510;51.068;3.872;2022-08-01T13:16:26;29.00;50.20
70145;DHT22;57510;51.068;3.872;2022-08-01T13:18:52;28.90;50.10
70145;DHT22;57510;51.068;3.872;2022-08-01T13:21:20;28.80;49.80
70145;DHT22;57510;51.068;3.872;2022-08-01T13:23:59;28.90;49.80
70145;DHT22;57510;51.068;3.872;2022-08-01T13:26:39;28.90;50.20
70145;DHT22;57510;51.068;3.872;2022-08-01T13:29:05;28.50;51.20
70145;DHT22;57510;51.068;3.872;2022-08-01T13:31:32;28.30;51.40
70145;DHT22;57510;51.068;3.872;2022-08-01T13:33:57;28.30;49.80
70145;DHT22;57510;51.068;3.872;2022-08-01T13:36:23;28.40;51.10
70145;DHT22;57510;51.068;3.872;2022-08-01T13:38:52;28.20;49.30
70145;DHT22;57510;51.068;3.872;2022-08-01T13:41:36;28.30;49.40
70145;DHT22;57510;51.068;3.872;2022-08-01T13:44:02;28.20;49.30
70145;DHT22;57510;51.068;3.872;2022-08-01T13:46:28;28.10;49.30
70145;DHT22;57510;51.068;3.872;2022-08-01T13:48:53;27.90;50.10
70145;DHT22;57510;51.068;3.872;2022-08-01T13:51:19;28.20;48.60
70145;DHT22;57510;51.068;3.872;2022-08-01T13:53:44;28.40;47.40
70145;DHT22;57510;51.068;3.872;2022-08-01T13:56:10;28.40;47.90
70145;DHT22;57510;51.068;3.872;2022-08-01T13:58:36;28.30;48.50
70145;DHT22;57510;51.068;3.872;2022-08-01T14:01:02;28.40;48.10
70145;DHT22;57510;51.068;3.872;2022-08-01T14:03:28;28.30;49.30
70145;DHT22;57510;51.068;3.872;2022-08-01T14:05:53;28.40;48.90
70145;DHT22;57510;51.068;3.872;2022-08-01T14:08:19;28.20;49.20
70145;DHT22;57510;51.068;3.872;2022-08-01T14:10:46;28.20;49.70
70145;DHT22;57510;51.068;3.872;2022-08-01T14:13:12;28.00;49.70
70145;DHT22;57510;51.068;3.872;2022-08-01T14:15:39;28.30;49.50
70145;DHT22;57510;51.068;3.872;2022-08-01T14:18:05;28.50;49.90
70145;DHT22;57510;51.068;3.872;2022-08-01T14:20:31;28.60;48.20
70145;DHT22;57510;51.068;3.872;2022-08-01T14:22:56;28.90;47.10
70145;DHT22;57510;51.068;3.872;2022-08-01T14:25:22;29.20;46.60
70145;DHT22;57510;51.068;3.872;2022-08-01T14:27:47;29.30;46.10
70145;DHT22;57510;51.068;3.872;2022-08-01T14:30:13;29.60;45.30
70145;DHT22;57510;51.068;3.872;2022-08-01T14:32:40;29.80;44.60
70145;DHT22;57510;51.068;3.872;2022-08-01T14:35:05;30.40;44.50
70145;DHT22;57510;51.068;3.872;2022-08-01T14:37:36;32.10;42.70
70145;DHT22;57510;51.068;3.872;2022-08-01T14:40:02;33.70;41.20
70145;DHT22;57510;51.068;3.872;2022-08-01T14:42:34;35.60;38.90
70145;DHT22;57510;51.068;3.872;2022-08-01T14:45:00;36.90;37.40
70145;DHT22;57510;51.068;3.872;2022-08-01T14:47:26;37.20;36.20
70145;DHT22;57510;51.068;3.872;2022-08-01T14:49:52;36.60;36.30
70145;DHT22;57510;51.068;3.872;2022-08-01T14:52:21;36.20;36.00
70145;DHT22;57510;51.068;3.872;2022-08-01T14:54:46;35.80;36.80
70145;DHT22;57510;51.068;3.872;2022-08-01T14:57:12;36.40;36.30
70145;DHT22;57510;51.068;3.872;2022-08-01T14:59:39;37.20;36.10
70145;DHT22;57510;51.068;3.872;2022-08-01T15:02:04;38.60;34.20
70145;DHT22;57510;51.068;3.872;2022-08-01T15:04:30;39.40;32.80
70145;DHT22;57510;51.068;3.872;2022-08-01T15:06:55;40.50;32.10
70145;DHT22;57510;51.068;3.872;2022-08-01T15:09:22;41.10;31.40
70145;DHT22;57510;51.068;3.872;2022-08-01T15:11:48;41.10;30.90
70145;DHT22;57510;51.068;3.872;2022-08-01T15:14:14;41.90;30.30
70145;DHT22;57510;51.068;3.872;2022-08-01T15:16:58;41.60;30.00
70145;DHT22;57510;51.068;3.872;2022-08-01T15:19:24;42.60;30.00
70145;DHT22;57510;51.068;3.872;2022-08-01T15:21:50;43.10;29.70
70145;DHT22;57510;51.068;3.872;2022-08-01T15:24:15;43.70;29.70
70145;DHT22;57510;51.068;3.872;2022-08-01T15:26:41;43.00;29.50
70145;DHT22;57510;51.068;3.872;2022-08-01T15:29:06;43.40;29.70
70145;DHT22;57510;51.068;3.872;2022-08-01T15:31:32;44.20;29.50
70145;DHT22;57510;51.068;3.872;2022-08-01T15:33:57;44.90;28.90
70145;DHT22;57510;51.068;3.872;2022-08-01T15:36:23;45.20;28.70
70145;DHT22;57510;51.068;3.872;2022-08-01T15:38:48;45.30;28.70
70145;DHT22;57510;51.068;3.872;2022-08-01T15:41:14;44.50;28.50
70145;DHT22;57510;51.068;3.872;2022-08-01T15:43:39;44.80;28.70
70145;DHT22;57510;51.068;3.872;2022-08-01T15:46:07;44.50;28.70
70145;DHT22;57510;51.068;3.872;2022-08-01T15:48:33;44.80;28.70
70145;DHT22;57510;51.068;3.872;2022-08-01T15:50:58;45.40;28.70
70145;DHT22;57510;51.068;3.872;2022-08-01T15:53:24;46.30;28.80
70145;DHT22;57510;51.068;3.872;2022-08-01T15:55:49;46.40;28.20
70145;DHT22;57510;51.068;3.872;2022-08-01T15:58:15;45.60;28.10
70145;DHT22;57510;51.068;3.872;2022-08-01T16:00:40;45.50;28.30
70145;DHT22;57510;51.068;3.872;2022-08-01T16:03:06;43.90;28.20
70145;DHT22;57510;51.068;3.872;2022-08-01T16:05:32;43.90;28.80
70145;DHT22;57510;51.068;3.872;2022-08-01T16:07:58;43.00;28.50
70145;DHT22;57510;51.068;3.872;2022-08-01T16:10:24;43.10;28.90
70145;DHT22;57510;51.068;3.872;2022-08-01T16:12:49;43.00;28.80
70145;DHT22;57510;51.068;3.872;2022-08-01T16:15:16;43.00;28.90
70145;DHT22;57510;51.068;3.872;2022-08-01T16:17:41;43.80;29.00